createdAt,value
2023-02-03T00:10:58.704Z,5.5
2023-02-03T00:22:58.685Z,5.5
2023-02-03T00:34:58.823Z,5.6
2023-02-03T00:46:58.647Z,5.7
2023-02-03T00:58:58.720Z,5.7
2023-02-03T01:10:58.710Z,5.7
2023-02-03T01:22:58.628Z,5.6
2023-02-03T01:34:58.851Z,5.6
2023-02-03T01:46:58.630Z,5.7
2023-02-03T01:58:58.619Z,5.7
2023-02-03T02:10:58.695Z,5.6
2023-02-03T02:22:58.701Z,5.7
2023-02-03T02:34:58.702Z,5.7
2023-02-03T02:46:58.677Z,5.8
2023-02-03T02:58:58.645Z,5.8
2023-02-03T03:10:58.728Z,5.9
2023-02-03T03:22:58.748Z,6.4
2023-02-03T03:34:58.614Z,6.2
2023-02-03T03:46:58.625Z,6.1
2023-02-03T03:58:58.738Z,6.1
2023-02-03T04:10:58.673Z,6.0
2023-02-03T04:22:58.618Z,6.0
2023-02-03T04:34:58.709Z,6.0
2023-02-03T04:46:58.654Z,6.1
2023-02-03T04:58:58.624Z,6.1
2023-02-03T05:11:00.667Z,6.2
2023-02-03T05:22:58.625Z,6.3
2023-02-03T05:34:58.614Z,6.3
2023-02-03T05:46:58.730Z,6.3
2023-02-03T05:58:58.720Z,6.3
2023-02-03T06:10:58.617Z,6.3
2023-02-03T06:22:58.618Z,6.3
2023-02-03T06:34:58.726Z,6.4
2023-02-03T06:46:58.625Z,6.4
2023-02-03T06:58:58.703Z,6.5
2023-02-03T07:10:58.622Z,6.6
2023-02-03T07:22:58.747Z,6.7
2023-02-03T07:34:58.730Z,6.8
2023-02-03T07:46:58.631Z,7.0
2023-02-03T07:58:58.622Z,7.1
2023-02-03T08:10:58.617Z,7.2
2023-02-03T08:22:58.733Z,7.2
2023-02-03T08:34:58.679Z,7.3
2023-02-03T08:46:58.622Z,7.2
2023-02-03T08:58:58.615Z,7.2
2023-02-03T09:10:58.766Z,7.3
2023-02-03T09:22:58.702Z,7.5
2023-02-03T09:34:58.752Z,7.6
2023-02-03T09:46:58.734Z,7.6
2023-02-03T09:58:58.724Z,7.5
2023-02-03T10:10:58.738Z,7.2
2023-02-03T10:22:58.623Z,6.9
2023-02-03T10:34:58.637Z,6.7
2023-02-03T10:46:58.721Z,6.6
2023-02-03T10:58:58.734Z,6.5
2023-02-03T11:10:58.628Z,6.5
2023-02-03T11:22:58.614Z,6.6
2023-02-03T11:34:58.638Z,6.6
2023-02-03T11:46:58.619Z,6.6
2023-02-03T11:58:58.709Z,6.8
2023-02-03T12:10:58.744Z,6.9
2023-02-03T12:22:58.683Z,7.1
2023-02-03T12:34:58.620Z,7.3
2023-02-03T12:46:58.733Z,7.6
2023-02-03T12:58:58.739Z,7.5
2023-02-03T13:10:58.746Z,7.5
2023-02-03T13:22:58.618Z,7.6
2023-02-03T13:34:58.710Z,7.5
2023-02-03T13:46:58.628Z,7.6
2023-02-03T13:58:58.806Z,7.7
2023-02-03T14:10:58.687Z,7.7
2023-02-03T14:22:58.681Z,7.8
2023-02-03T14:34:58.618Z,7.7
2023-02-03T14:46:58.623Z,7.6
2023-02-03T14:58:58.626Z,7.5
2023-02-03T15:10:58.641Z,7.6
2023-02-03T15:22:58.743Z,7.6
2023-02-03T15:34:58.713Z,7.5
2023-02-03T15:46:58.822Z,7.5
2023-02-03T15:58:58.647Z,7.4
2023-02-03T16:10:58.732Z,7.4
2023-02-03T16:22:58.700Z,7.5
2023-02-03T16:34:58.691Z,7.6
2023-02-03T16:46:58.636Z,7.6
2023-02-03T16:58:58.619Z,7.7
2023-02-03T17:10:58.726Z,7.6
2023-02-03T17:22:58.702Z,7.6
2023-02-03T17:34:58.628Z,7.4
2023-02-03T17:58:58.715Z,6.9
2023-02-03T18:10:58.665Z,6.8
2023-02-03T18:22:58.725Z,6.8
2023-02-03T18:35:00.010Z,6.9
2023-02-03T18:46:58.598Z,6.8
2023-02-03T18:58:58.673Z,6.7
2023-02-03T19:10:58.591Z,6.7
2023-02-03T19:22:58.717Z,6.6
2023-02-03T19:34:58.622Z,6.7
2023-02-03T19:46:58.736Z,6.8
2023-02-03T19:58:58.701Z,6.7
2023-02-03T20:10:58.637Z,6.7
2023-02-03T20:22:58.706Z,6.9
2023-02-03T20:34:58.725Z,6.9
2023-02-03T20:46:58.772Z,6.9
2023-02-03T20:58:58.731Z,6.9
2023-02-03T21:10:58.630Z,7.0
2023-02-03T21:22:58.738Z,7.0
2023-02-03T21:34:58.734Z,7.0
2023-02-03T21:46:58.630Z,6.8
2023-02-03T21:58:58.746Z,6.9
2023-02-03T22:10:58.619Z,6.8
2023-02-03T22:22:58.714Z,6.6
2023-02-03T22:34:58.743Z,6.5
2023-02-03T22:46:58.625Z,6.5
2023-02-03T22:58:59.620Z,6.4
2023-02-03T23:10:58.762Z,6.4
2023-02-03T23:22:58.618Z,6.3
2023-02-03T23:34:58.723Z,6.3
2023-02-03T23:46:58.622Z,6.3
2023-02-03T23:58:58.701Z,6.3
